Time;durP1;ratioP1;P1;durP2;ratioP2;P2;SDS_P1;SDS_P2;PMS_P1;PMS_P2;Temp;Humidity;BMP_temperature;BMP_pressure;BME280_temperature;BME280_humidity;BME280_pressure;Samples;Min_cycle;Max_cycle;Signal;HPM_P1;HPM_P2
2022/07/03 00:02:20;;;;;;;5.50;2.30;;;;;;;19.54;67.98;101071.63;105516;1278;25461;-79
2022/07/03 00:04:47;;;;;;;4.60;2.70;;;;;;;19.52;68.02;101069.00;105737;1278;25343;-78
2022/07/03 00:07:13;;;;;;;2.50;2.10;;;;;;;19.49;68.31;101069.13;105643;1279;23081;-76
2022/07/03 00:09:39;;;;;;;2.70;2.30;;;;;;;19.46;68.30;101064.38;106095;1271;22556;-78
2022/07/03 00:12:06;;;;;;;4.10;2.30;;;;;;;19.50;68.35;101068.90;106138;1279;24293;-76
2022/07/03 00:14:32;;;;;;;2.90;2.20;;;;;;;19.48;68.29;101064.70;106147;1281;23160;-77
2022/07/03 00:16:58;;;;;;;3.10;2.20;;;;;;;19.44;68.42;101063.22;105545;1281;24070;-78
2022/07/03 00:19:25;;;;;;;2.60;1.90;;;;;;;19.45;68.60;101060.50;105575;1280;25734;-80
2022/07/03 00:21:55;;;;;;;5.80;2.40;;;;;;;19.42;68.55;101057.58;105541;1281;22875;-81
2022/07/03 00:24:32;;;;;;;3.00;2.10;;;;;;;19.45;68.73;101060.15;105431;1281;22572;-81
2022/07/03 00:27:00;;;;;;;3.70;2.10;;;;;;;19.48;68.69;101066.13;105718;1279;22565;-81
2022/07/03 00:29:36;;;;;;;3.30;2.20;;;;;;;19.50;68.80;101060.52;105348;1278;22608;-80
2022/07/03 00:32:05;;;;;;;5.20;2.40;;;;;;;19.50;68.58;101058.55;106284;1271;25457;-79
2022/07/03 00:34:32;;;;;;;2.90;2.00;;;;;;;19.48;68.57;101059.33;106245;1274;22744;-78
2022/07/03 00:37:00;;;;;;;3.70;1.70;;;;;;;19.46;68.66;101059.21;106288;1273;25266;-80
2022/07/03 00:39:41;;;;;;;4.40;1.70;;;;;;;19.47;68.53;101063.48;106200;1271;23998;-81
2022/07/03 00:42:08;;;;;;;2.30;2.10;;;;;;;19.47;68.60;101061.86;106185;1271;24100;-75
2022/07/03 00:44:50;;;;;;;3.10;2.10;;;;;;;19.49;68.54;101060.52;106329;1274;26526;-75
2022/07/03 00:47:23;;;;;;;5.20;2.10;;;;;;;19.48;68.48;101059.14;106344;1271;24270;-73
2022/07/03 00:49:54;;;;;;;2.30;2.00;;;;;;;19.49;68.45;101061.98;106036;1274;22561;-76
2022/07/03 00:52:22;;;;;;;3.40;2.20;;;;;;;19.47;68.61;101054.36;106120;1271;25389;-78
2022/07/03 00:54:54;;;;;;;4.00;2.30;;;;;;;19.40;68.62;101052.98;106257;1274;24361;-75
2022/07/03 00:57:23;;;;;;;2.70;2.00;;;;;;;19.30;68.84;101053.02;105976;1275;22567;-76
2022/07/03 00:59:50;;;;;;;6.30;2.40;;;;;;;19.22;69.08;101050.08;106198;1271;24231;-75
2022/07/03 01:02:40;;;;;;;3.10;2.20;;;;;;;19.21;69.32;101052.23;106342;1274;23289;-74
2022/07/03 01:05:09;;;;;;;7.40;2.20;;;;;;;19.23;69.51;101047.35;106360;1271;22569;-73
2022/07/03 01:08:17;;;;;;;5.00;2.30;;;;;;;19.24;69.70;101042.46;106402;1271;24323;-77
2022/07/03 01:10:58;;;;;;;4.50;2.60;;;;;;;19.26;69.72;101049.53;106465;1272;22610;-76
2022/07/03 01:14:02;;;;;;;5.10;2.80;;;;;;;19.25;69.84;101042.43;106347;1271;24256;-78
2022/07/03 01:17:01;;;;;;;4.60;2.80;;;;;;;19.25;70.05;101039.76;106437;1271;22538;-75
2022/07/03 01:19:41;;;;;;;4.10;2.50;;;;;;;19.20;69.82;101041.36;106233;1271;22538;-78
2022/07/03 01:22:31;;;;;;;5.70;2.40;;;;;;;19.16;70.09;101037.40;106350;1271;24469;-75
2022/07/03 01:25:21;;;;;;;5.20;2.60;;;;;;;19.15;70.09;101036.01;106113;1274;22593;-75
2022/07/03 01:27:59;;;;;;;3.90;2.60;;;;;;;19.16;70.27;101031.51;106265;1271;25265;-74
2022/07/03 01:30:32;;;;;;;7.80;3.10;;;;;;;19.17;70.18;101033.98;106247;1272;24318;-73
2022/07/03 01:33:04;;;;;;;4.10;2.60;;;;;;;19.12;70.18;101032.36;106332;1271;23783;-71
2022/07/03 01:35:39;;;;;;;3.70;2.70;;;;;;;19.10;70.34;101032.96;106294;1271;22522;-69
2022/07/03 01:38:09;;;;;;;4.30;2.50;;;;;;;19.11;70.40;101026.16;106260;1271;25246;-78
2022/07/03 01:40:38;;;;;;;3.70;2.50;;;;;;;19.11;70.22;101026.14;106269;1272;24743;-75
2022/07/03 01:43:07;;;;;;;3.20;2.00;;;;;;;19.09;70.23;101026.20;106331;1271;22695;-73
2022/07/03 01:45:38;;;;;;;2.40;2.10;;;;;;;19.06;70.11;101023.09;106172;1274;25339;-75
2022/07/03 01:48:07;;;;;;;2.40;2.20;;;;;;;19.03;70.05;101020.32;106230;1272;23965;-75
2022/07/03 01:50:34;;;;;;;3.20;2.60;;;;;;;19.01;69.97;101015.72;106116;1271;22543;-75
2022/07/03 01:53:02;;;;;;;2.30;2.10;;;;;;;19.02;69.88;101013.06;106136;1272;25438;-76
2022/07/03 01:55:32;;;;;;;4.00;2.10;;;;;;;18.99;69.81;101015.29;106287;1271;24237;-76
2022/07/03 01:57:59;;;;;;;6.30;2.30;;;;;;;18.89;69.33;101010.08;106120;1272;24434;-75
2022/07/03 02:00:27;;;;;;;5.00;2.40;;;;;;;18.86;69.41;101013.77;106066;1272;22546;-74
2022/07/03 02:02:58;;;;;;;5.40;2.10;;;;;;;18.84;69.45;101016.70;106068;1274;22547;-77
2022/07/03 02:05:42;;;;;;;4.30;2.00;;;;;;;18.80;69.25;101016.79;106161;1271;22688;-77
2022/07/03 02:08:33;;;;;;;4.20;1.60;;;;;;;18.78;69.29;101010.81;106074;1272;22706;-76
2022/07/03 02:11:21;;;;;;;4.10;2.00;;;;;;;18.78;69.15;101012.59;106216;1271;22939;-74
2022/07/03 02:14:07;;;;;;;3.90;1.80;;;;;;;18.76;69.11;101013.37;105916;1276;22579;-73
2022/07/03 02:16:50;;;;;;;3.50;2.10;;;;;;;18.74;68.97;101013.81;106194;1271;22767;-74
2022/07/03 02:19:19;;;;;;;4.60;1.80;;;;;;;18.71;68.83;101015.30;106117;1272;25274;-75
2022/07/03 02:21:51;;;;;;;3.00;1.90;;;;;;;18.70;68.96;101010.55;106022;1272;22652;-85
2022/07/03 02:24:25;;;;;;;2.60;1.80;;;;;;;18.68;68.79;101015.42;106113;1274;22655;-80
2022/07/03 02:27:08;;;;;;;3.60;2.00;;;;;;;18.65;68.76;101014.28;106095;1274;27223;-74
2022/07/03 02:29:41;;;;;;;3.80;2.30;;;;;;;18.61;68.72;101013.89;106061;1271;24373;-79
2022/07/03 02:32:13;;;;;;;3.10;1.50;;;;;;;18.57;68.79;101016.52;106348;1271;22768;-75
2022/07/03 02:34:45;;;;;;;1.70;1.60;;;;;;;18.57;68.68;101017.73;106613;1271;22567;-77
2022/07/03 02:37:19;;;;;;;2.20;1.60;;;;;;;18.55;68.62;101017.42;106569;1271;24228;-78
2022/07/03 02:39:53;;;;;;;7.00;1.90;;;;;;;18.53;68.50;101015.73;106249;1271;22554;-77
2022/07/03 02:42:29;;;;;;;4.30;1.80;;;;;;;18.52;68.31;101016.65;105324;1278;22550;-77
2022/07/03 02:45:01;;;;;;;3.20;1.80;;;;;;;18.51;68.47;101020.23;105401;1284;25294;-79
2022/07/03 02:47:51;;;;;;;4.70;1.80;;;;;;;18.51;68.35;101017.77;105158;1283;22564;-77
2022/07/03 02:50:21;;;;;;;4.00;1.80;;;;;;;18.50;68.21;101021.70;105235;1281;22731;-77
2022/07/03 02:53:04;;;;;;;3.40;1.80;;;;;;;18.49;68.32;101014.43;104818;1287;22650;-82
2022/07/03 02:55:42;;;;;;;2.50;1.90;;;;;;;18.48;68.36;101011.08;105229;1287;26104;-79
2022/07/03 02:58:27;;;;;;;5.60;1.80;;;;;;;18.48;68.29;101010.89;104921;1287;23954;-74
2022/07/03 03:00:58;;;;;;;2.40;1.50;;;;;;;18.50;68.09;101009.57;104829;1285;22582;-77
2022/07/03 03:03:32;;;;;;;6.30;2.10;;;;;;;18.49;67.86;101010.33;105155;1281;22602;-73
2022/07/03 03:06:04;;;;;;;4.40;1.70;;;;;;;18.49;67.77;101010.88;105177;1284;25408;-73
2022/07/03 03:08:47;;;;;;;4.50;1.50;;;;;;;18.52;67.66;101013.45;105535;1278;22559;-75
2022/07/03 03:11:24;;;;;;;4.10;1.40;;;;;;;18.56;67.53;101016.34;105804;1271;24269;-78
2022/07/03 03:13:56;;;;;;;3.90;1.60;;;;;;;18.60;67.30;101013.73;106025;1274;24255;-76
2022/07/03 03:16:23;;;;;;;3.10;1.50;;;;;;;18.62;67.21;101009.73;106102;1271;25371;-73
2022/07/03 03:18:49;;;;;;;4.40;1.50;;;;;;;18.63;67.07;101008.27;106057;1271;22792;-79
2022/07/03 03:21:18;;;;;;;3.10;1.30;;;;;;;18.63;66.93;101004.19;106273;1271;22539;-75
2022/07/03 03:23:50;;;;;;;3.90;1.40;;;;;;;18.64;66.75;100997.38;105895;1280;22753;-74
2022/07/03 03:26:19;;;;;;;3.00;1.50;;;;;;;18.59;66.61;100995.21;105868;1279;25471;-74
2022/07/03 03:28:47;;;;;;;3.10;1.40;;;;;;;18.60;66.76;100994.63;105673;1279;22567;-76
2022/07/03 03:31:14;;;;;;;2.90;1.60;;;;;;;18.62;66.76;100992.42;105653;1279;23608;-81
2022/07/03 03:33:42;;;;;;;4.20;1.60;;;;;;;18.61;66.58;100991.77;105706;1281;24544;-79
2022/07/03 03:36:11;;;;;;;4.20;1.50;;;;;;;18.52;66.33;100990.44;105922;1279;22594;-74
2022/07/03 03:38:38;;;;;;;3.10;1.50;;;;;;;18.54;66.69;100992.69;106412;1281;25379;-75
2022/07/03 03:41:05;;;;;;;3.00;1.60;;;;;;;18.61;66.80;100994.10;106112;1274;23953;-76
2022/07/03 03:43:32;;;;;;;2.90;1.50;;;;;;;18.64;66.70;100991.48;106083;1274;22611;-77
2022/07/03 03:46:00;;;;;;;2.70;1.70;;;;;;;18.65;66.82;100990.16;106182;1274;22576;-75
2022/07/03 03:48:27;;;;;;;3.30;1.40;;;;;;;18.67;66.85;100984.77;105974;1273;24217;-75
2022/07/03 03:50:57;;;;;;;3.10;1.40;;;;;;;18.66;66.92;100987.49;106081;1271;22564;-76
2022/07/03 03:53:28;;;;;;;2.70;1.40;;;;;;;18.65;66.81;100991.27;106131;1271;25528;-79
2022/07/03 03:56:03;;;;;;;8.00;1.70;;;;;;;18.63;66.61;100983.64;106393;1271;22973;-77
2022/07/03 03:58:32;;;;;;;5.60;1.60;;;;;;;18.61;66.76;100980.13;106231;1271;24303;-76
2022/07/03 04:01:00;;;;;;;5.00;1.50;;;;;;;18.61;66.74;100981.58;106051;1271;24380;-73
2022/07/03 04:03:28;;;;;;;4.40;1.50;;;;;;;18.60;66.86;100980.00;106077;1272;25382;-72
2022/07/03 04:05:54;;;;;;;4.50;1.60;;;;;;;18.56;66.89;100980.85;106209;1271;25437;-74
2022/07/03 04:08:22;;;;;;;2.70;1.30;;;;;;;18.55;67.01;100981.06;106348;1271;24323;-75
2022/07/03 04:10:48;;;;;;;6.60;1.30;;;;;;;18.54;66.89;100976.10;106120;1271;25484;-76
2022/07/03 04:13:16;;;;;;;3.70;1.50;;;;;;;18.53;66.75;100975.23;106012;1271;25387;-75
2022/07/03 04:15:43;;;;;;;3.60;1.40;;;;;;;18.51;66.64;100979.60;106096;1274;24132;-75
2022/07/03 04:18:09;;;;;;;3.40;1.70;;;;;;;18.50;66.71;100981.41;106281;1271;22624;-76
2022/07/03 04:20:35;;;;;;;4.10;1.50;;;;;;;18.51;66.74;100982.62;106169;1271;259966;-75
2022/07/03 04:23:02;;;;;;;5.90;3.00;;;;;;;18.50;66.78;100989.23;106269;1271;26976;-73
2022/07/03 04:25:28;;;;;;;7.60;3.90;;;;;;;18.46;66.59;100990.80;106342;1271;25436;-76
2022/07/03 04:27:55;;;;;;;1.90;1.30;;;;;;;18.40;67.00;100987.27;106147;1271;25606;-85
2022/07/03 04:30:41;;;;;;;2.70;1.60;;;;;;;18.39;67.14;100984.81;106513;1271;22603;-81
2022/07/03 04:33:07;;;;;;;2.50;1.30;;;;;;;18.41;67.11;100985.64;106997;1271;22574;-82
2022/07/03 04:35:34;;;;;;;5.30;1.60;;;;;;;18.39;66.87;100984.61;105994;1273;22711;-81
2022/07/03 04:38:00;;;;;;;2.20;1.30;;;;;;;18.39;66.89;100981.95;106693;1272;22883;-78
2022/07/03 04:40:26;;;;;;;5.20;1.20;;;;;;;18.40;66.72;100978.69;106285;1271;26882;-75
2022/07/03 04:42:52;;;;;;;3.20;1.30;;;;;;;18.39;66.64;100978.91;106765;1271;25258;-76
2022/07/03 04:45:18;;;;;;;2.70;1.30;;;;;;;18.40;66.87;100980.14;107062;1273;22574;-74
2022/07/03 04:47:45;;;;;;;3.00;1.20;;;;;;;18.40;66.88;100976.19;107350;1273;24272;-74
2022/07/03 04:50:11;;;;;;;5.60;4.10;;;;;;;18.41;66.95;100976.18;107663;1271;23431;-74
2022/07/03 04:52:37;;;;;;;3.40;1.90;;;;;;;18.45;67.04;100973.92;107181;1273;22787;-75
2022/07/03 04:55:03;;;;;;;1.80;1.40;;;;;;;18.47;66.89;100975.80;107537;1271;23358;-74
2022/07/03 04:57:30;;;;;;;2.30;1.00;;;;;;;18.49;67.00;100977.34;108648;1272;26011;-76
2022/07/03 04:59:56;;;;;;;4.00;1.40;;;;;;;18.50;66.89;100977.46;108359;1272;22561;-78
2022/07/03 05:02:22;;;;;;;3.20;1.50;;;;;;;18.53;66.94;100973.98;107423;1273;25278;-78
2022/07/03 05:04:49;;;;;;;3.40;1.40;;;;;;;18.54;66.82;100974.83;107009;1273;25376;-79
2022/07/03 05:07:15;;;;;;;4.20;1.20;;;;;;;18.55;66.70;100974.47;106348;1273;22654;-78
2022/07/03 05:09:41;;;;;;;5.00;1.00;;;;;;;18.59;66.75;100972.75;106231;1273;22678;-80
2022/07/03 05:12:07;;;;;;;3.10;1.30;;;;;;;18.64;66.78;100975.96;106282;1271;27028;-77
2022/07/03 05:14:33;;;;;;;4.00;1.40;;;;;;;18.65;66.52;100977.34;106228;1273;23944;-79
2022/07/03 05:17:00;;;;;;;4.40;1.20;;;;;;;18.67;66.14;100983.70;106263;1271;22704;-78
2022/07/03 05:19:26;;;;;;;1.80;1.20;;;;;;;18.67;66.01;100980.31;106022;1273;25886;-81
2022/07/03 05:21:52;;;;;;;5.70;1.10;;;;;;;18.71;66.10;100987.31;106039;1274;25587;-80
2022/07/03 05:24:18;;;;;;;2.30;1.20;;;;;;;18.76;65.89;100989.11;106330;1272;22727;-79
2022/07/03 05:26:44;;;;;;;7.00;1.40;;;;;;;18.75;65.33;100990.57;105883;1281;24235;-79
2022/07/03 05:29:11;;;;;;;4.10;1.50;;;;;;;18.77;65.60;100990.16;105678;1281;25495;-78
2022/07/03 05:31:37;;;;;;;3.50;1.30;;;;;;;18.81;65.33;100991.80;105552;1281;22565;-79
2022/07/03 05:34:03;;;;;;;2.00;1.00;;;;;;;18.84;65.01;100984.93;105582;1281;23078;-79
2022/07/03 05:36:30;;;;;;;5.00;1.50;;;;;;;18.86;65.03;100984.52;105578;1281;25500;-81
2022/07/03 05:41:41;;;;;;;2.70;1.00;;;;;;;18.89;64.76;100981.73;105707;1281;25631;-77
2022/07/03 05:44:07;;;;;;;3.10;1.20;;;;;;;18.88;64.59;100976.74;105834;1275;23317;-77
2022/07/03 05:46:33;;;;;;;5.00;0.90;;;;;;;18.89;64.32;100974.74;106128;1274;25394;-80
2022/07/03 05:49:00;;;;;;;5.10;1.30;;;;;;;18.91;64.07;100968.44;105843;1276;25251;-79
2022/07/03 05:51:27;;;;;;;3.80;0.90;;;;;;;18.92;63.55;100968.58;105924;1276;25818;-78
2022/07/03 05:53:53;;;;;;;2.50;1.00;;;;;;;18.94;62.92;100970.28;105731;1277;22546;-78
2022/07/03 05:56:19;;;;;;;3.20;1.00;;;;;;;18.98;62.95;100973.57;105764;1278;25502;-75
2022/07/03 05:58:45;;;;;;;2.10;1.00;;;;;;;18.99;62.94;100972.25;105579;1277;22556;-77
2022/07/03 06:01:11;;;;;;;5.10;1.00;;;;;;;19.04;62.85;100972.27;105629;1277;22773;-77
2022/07/03 06:03:37;;;;;;;3.40;0.90;;;;;;;19.08;62.77;100972.48;108006;1276;22815;-80
2022/07/03 06:06:04;;;;;;;2.50;1.10;;;;;;;19.11;62.82;100974.73;107502;1277;22547;-83
2022/07/03 06:08:31;;;;;;;4.70;1.20;;;;;;;19.13;62.36;100975.39;106221;1274;24216;-78
2022/07/03 06:10:58;;;;;;;1.00;0.60;;;;;;;19.16;62.06;100969.55;106109;1273;25440;-81
2022/07/03 06:13:24;;;;;;;2.80;1.10;;;;;;;19.20;61.42;100973.34;106043;1273;25443;-79
2022/07/03 06:15:50;;;;;;;0.80;0.60;;;;;;;19.22;61.36;100975.25;106222;1273;25455;-78
2022/07/03 06:18:16;;;;;;;3.10;0.80;;;;;;;19.24;61.20;100978.56;106255;1272;25463;-80
2022/07/03 06:20:42;;;;;;;4.60;0.90;;;;;;;19.27;61.03;100979.73;105907;1274;25260;-79
2022/07/03 06:23:08;;;;;;;3.90;1.10;;;;;;;19.26;60.29;100981.20;105939;1274;22713;-80
2022/07/03 06:25:54;;;;;;;;;;;;;;;19.30;60.02;100989.05;106059;1273;24365;-79
2022/07/03 06:28:20;;;;;;;5.00;1.20;;;;;;;19.34;59.90;100987.70;106251;1273;23107;-73
2022/07/03 06:30:47;;;;;;;3.90;1.10;;;;;;;19.37;59.10;100993.98;106147;1273;25329;-78
2022/07/03 06:33:13;;;;;;;2.50;0.70;;;;;;;19.39;58.77;100991.23;106177;1272;22566;-75
2022/07/03 06:35:39;;;;;;;2.20;0.70;;;;;;;19.43;58.54;100987.71;105963;1274;22628;-74
2022/07/03 06:38:05;;;;;;;3.40;0.80;;;;;;;19.46;58.21;100988.48;105826;1273;25366;-87
2022/07/03 06:40:31;;;;;;;3.20;0.90;;;;;;;19.49;58.02;100985.71;106157;1273;22725;-76
2022/07/03 06:42:58;;;;;;;2.80;0.90;;;;;;;19.53;58.08;100987.85;106007;1273;22550;-73
2022/07/03 06:45:24;;;;;;;1.60;0.70;;;;;;;19.57;57.90;100985.41;106255;1273;24857;-75
2022/07/03 06:47:50;;;;;;;1.30;0.90;;;;;;;19.60;57.85;100987.42;106156;1274;22877;-76
2022/07/03 06:50:16;;;;;;;1.90;0.70;;;;;;;19.63;57.48;100984.12;106043;1277;24281;-80
2022/07/03 06:52:42;;;;;;;2.60;0.80;;;;;;;19.66;57.49;100984.71;105675;1279;22774;-76
2022/07/03 06:55:09;;;;;;;4.30;1.20;;;;;;;19.68;57.40;100987.13;105628;1277;23280;-75
2022/07/03 06:57:35;;;;;;;3.50;1.00;;;;;;;19.73;57.51;100990.19;105765;1277;26729;-79
2022/07/03 07:00:01;;;;;;;2.90;0.90;;;;;;;19.75;57.01;100988.83;105901;1277;22688;-80
2022/07/03 07:02:27;;;;;;;2.80;0.90;;;;;;;19.78;57.01;100979.44;105631;1278;24275;-77
2022/07/03 07:04:53;;;;;;;2.30;1.10;;;;;;;19.83;56.82;100975.66;105790;1276;22750;-79
2022/07/03 07:07:20;;;;;;;6.00;2.40;;;;;;;19.87;56.78;100971.24;105617;1277;22570;-77
2022/07/03 07:09:46;;;;;;;4.20;1.80;;;;;;;19.90;56.45;100962.55;105760;1277;25554;-75
2022/07/03 07:12:12;;;;;;;4.50;2.60;;;;;;;19.91;56.68;100953.37;105912;1276;22682;-75
2022/07/03 07:14:39;;;;;;;9.20;4.50;;;;;;;19.95;56.54;100943.74;105866;1274;22564;-76
2022/07/03 07:17:05;;;;;;;6.10;2.50;;;;;;;20.02;57.01;100947.80;105913;1273;25390;-74
2022/07/03 07:19:32;;;;;;;6.10;2.70;;;;;;;20.07;56.59;100948.16;106167;1273;25273;-82
2022/07/03 07:22:00;;;;;;;4.10;1.60;;;;;;;20.10;56.35;100943.94;106028;1273;22551;-77
2022/07/03 07:24:28;;;;;;;3.20;1.70;;;;;;;20.13;56.50;100944.50;106449;1271;24073;-79
2022/07/03 07:26:55;;;;;;;7.40;3.00;;;;;;;20.17;56.76;100939.54;106399;1271;25376;-76
2022/07/03 07:29:21;;;;;;;4.70;1.80;;;;;;;20.25;56.74;100941.36;106391;1271;22737;-72
2022/07/03 07:31:47;;;;;;;3.70;1.30;;;;;;;20.30;56.59;100939.71;106236;1271;22544;-75
2022/07/03 07:34:13;;;;;;;4.20;1.40;;;;;;;20.38;56.65;100938.85;106482;1271;22683;-73
2022/07/03 07:36:40;;;;;;;2.50;0.80;;;;;;;20.44;56.36;100938.07;107093;1271;22561;-72
2022/07/03 07:39:06;;;;;;;5.40;2.00;;;;;;;20.51;56.45;100933.10;107299;1271;23279;-71
2022/07/03 07:41:33;;;;;;;5.20;2.50;;;;;;;20.60;56.07;100930.08;107017;1273;22617;-73
2022/07/03 07:44:00;;;;;;;5.90;1.10;;;;;;;20.67;56.32;100931.73;106568;1271;25278;-74
2022/07/03 07:46:26;;;;;;;6.00;2.80;;;;;;;20.76;55.89;100931.19;106722;1271;22710;-72
2022/07/03 07:48:52;;;;;;;3.20;1.10;;;;;;;20.85;55.84;100930.45;106776;1272;25254;-75
2022/07/03 07:51:19;;;;;;;1.40;0.80;;;;;;;20.94;55.41;100930.44;106997;1277;24365;-79
2022/07/03 07:53:46;;;;;;;3.50;0.80;;;;;;;21.00;54.92;100928.90;108258;1277;25400;-78
2022/07/03 07:56:12;;;;;;;2.90;0.90;;;;;;;21.08;55.08;100927.51;107458;1277;22578;-83
2022/07/03 07:58:38;;;;;;;2.70;0.90;;;;;;;21.18;54.76;100927.96;108644;1277;22599;-78
2022/07/03 08:06:34;;;;;;;2.60;0.80;;;;;;;21.51;53.43;100917.66;109472;1277;22564;-78
2022/07/03 08:09:01;;;;;;;2.70;0.90;;;;;;;21.64;53.45;100917.43;109304;1273;22548;-78
2022/07/03 08:11:28;;;;;;;1.00;0.90;;;;;;;21.75;52.67;100922.10;108989;1271;22546;-76
2022/07/03 08:13:55;;;;;;;2.20;1.00;;;;;;;21.83;52.26;100918.73;108075;1271;22561;-77
2022/07/03 08:16:21;;;;;;;2.10;0.90;;;;;;;21.92;51.60;100914.90;107533;1277;22585;-78
2022/07/03 08:18:47;;;;;;;1.30;0.80;;;;;;;22.03;51.57;100914.73;105888;1278;24886;-81
2022/07/03 08:21:14;;;;;;;2.20;0.90;;;;;;;22.11;51.27;100917.56;105781;1279;22550;-81
2022/07/03 08:23:40;;;;;;;2.50;0.70;;;;;;;22.22;51.59;100914.33;106042;1277;22563;-78
2022/07/03 08:26:06;;;;;;;8.50;5.10;;;;;;;22.31;51.00;100908.66;105744;1278;24273;-76
2022/07/03 08:28:32;;;;;;;2.00;1.20;;;;;;;22.45;51.10;100915.87;105828;1279;22842;-78
2022/07/03 08:31:01;;;;;;;3.80;1.00;;;;;;;22.60;51.45;100907.98;105889;1279;22544;-78
2022/07/03 08:33:27;;;;;;;1.70;0.70;;;;;;;22.70;50.97;100905.31;105961;1279;25287;-78
2022/07/03 08:35:53;;;;;;;3.80;1.00;;;;;;;22.81;50.93;100905.83;106196;1273;24244;-79
2022/07/03 08:38:22;;;;;;;2.40;0.90;;;;;;;22.92;50.62;100896.63;106398;1273;22566;-76
2022/07/03 08:40:50;;;;;;;1.70;0.70;;;;;;;23.02;50.20;100896.08;107226;1273;22547;-73
2022/07/03 08:43:18;;;;;;;3.50;1.10;;;;;;;23.13;50.08;100893.52;107872;1272;22550;-73
2022/07/03 08:45:44;;;;;;;2.10;0.90;;;;;;;23.25;48.85;100897.90;108576;1271;22681;-74
2022/07/03 08:48:12;;;;;;;1.00;0.50;;;;;;;23.37;48.86;100890.98;107622;1271;23272;-74
2022/07/03 08:50:41;;;;;;;2.30;0.60;;;;;;;23.52;48.14;100891.99;106463;1273;22714;-74
2022/07/03 08:53:11;;;;;;;2.30;0.70;;;;;;;23.63;48.01;100885.63;106208;1272;22664;-75
2022/07/03 08:55:37;;;;;;;2.30;1.00;;;;;;;23.74;48.12;100881.79;106031;1273;23373;-77
2022/07/03 08:58:05;;;;;;;1.50;0.90;;;;;;;23.83;47.89;100883.10;106088;1273;24223;-73
2022/07/03 09:00:32;;;;;;;3.60;2.80;;;;;;;23.94;47.64;100882.27;106402;1272;22531;-76
2022/07/03 09:03:00;;;;;;;3.00;1.10;;;;;;;24.00;46.51;100883.73;106131;1273;23967;-75
2022/07/03 09:05:26;;;;;;;2.60;1.00;;;;;;;24.07;45.90;100881.35;106153;1273;24256;-80
2022/07/03 09:07:55;;;;;;;2.00;0.60;;;;;;;24.15;45.72;100882.70;106512;1273;26615;-81
2022/07/03 09:10:21;;;;;;;1.20;0.80;;;;;;;24.28;45.98;100877.84;106280;1273;25580;-81
2022/07/03 09:12:48;;;;;;;3.30;1.20;;;;;;;24.41;45.77;100877.08;106311;1273;22660;-77
2022/07/03 09:15:15;;;;;;;2.20;0.80;;;;;;;24.42;45.09;100878.64;106368;1271;26673;-77
2022/07/03 09:18:04;;;;;;;1.20;0.60;;;;;;;24.42;44.85;100875.38;106365;1272;25328;-82
2022/07/03 09:20:36;;;;;;;1.90;0.90;;;;;;;24.49;44.58;100874.05;106152;1273;24389;-78
2022/07/03 09:23:14;;;;;;;1.90;0.80;;;;;;;24.61;44.80;100877.15;106268;1272;26545;-78
2022/07/03 09:25:58;;;;;;;1.50;0.90;;;;;;;24.77;44.32;100874.16;106402;1271;25390;-81
2022/07/03 09:28:41;;;;;;;1.80;0.80;;;;;;;24.93;44.18;100875.05;106069;1272;22600;-80
2022/07/03 09:31:08;;;;;;;1.10;0.90;;;;;;;25.05;44.34;100869.59;106335;1273;25386;-81
2022/07/03 09:33:35;;;;;;;2.40;1.00;;;;;;;25.13;44.08;100866.21;106677;1273;24343;-79
2022/07/03 09:36:06;;;;;;;4.90;2.60;;;;;;;25.15;44.02;100864.11;106124;1273;23849;-78
2022/07/03 09:38:50;;;;;;;2.20;1.10;;;;;;;25.22;43.77;100866.00;106222;1272;25390;-75
2022/07/03 09:41:16;;;;;;;1.50;0.90;;;;;;;25.34;43.69;100862.05;106199;1273;22532;-77
2022/07/03 09:43:44;;;;;;;0.80;0.70;;;;;;;25.45;42.89;100859.52;106358;1273;22717;-77
2022/07/03 09:46:10;;;;;;;1.60;0.70;;;;;;;25.53;43.06;100861.02;106101;1273;26504;-75
2022/07/03 09:48:41;;;;;;;1.70;0.60;;;;;;;25.68;42.72;100858.64;106179;1273;22541;-78
2022/07/03 09:51:20;;;;;;;1.20;0.70;;;;;;;25.80;42.54;100857.84;106061;1273;22557;-77
2022/07/03 09:54:14;;;;;;;1.30;1.10;;;;;;;25.91;41.97;100856.59;106351;1273;22580;-77
2022/07/03 09:56:41;;;;;;;1.00;0.80;;;;;;;25.98;41.37;100857.19;106275;1273;22588;-79
2022/07/03 09:59:08;;;;;;;1.50;0.60;;;;;;;26.14;41.18;100852.93;106183;1272;23160;-75
2022/07/03 10:01:37;;;;;;;2.70;0.60;;;;;;;26.23;40.59;100855.70;106098;1273;22810;-76
2022/07/03 10:04:13;;;;;;;1.80;0.80;;;;;;;26.34;40.19;100850.48;105751;1278;24398;-76
2022/07/03 10:07:09;;;;;;;3.40;0.70;;;;;;;26.37;39.70;100847.57;105802;1278;22544;-78
2022/07/03 10:09:35;;;;;;;2.20;0.90;;;;;;;26.47;39.91;100845.80;105936;1278;22871;-77
2022/07/03 10:12:03;;;;;;;3.90;0.70;;;;;;;26.45;39.42;100842.54;105787;1277;22551;-77
2022/07/03 10:14:32;;;;;;;0.60;0.40;;;;;;;26.43;39.40;100847.69;105840;1278;23291;-80
2022/07/03 10:17:00;;;;;;;2.90;1.00;;;;;;;26.48;39.76;100840.88;105949;1278;25429;-78
2022/07/03 10:19:30;;;;;;;1.20;0.80;;;;;;;26.60;39.14;100838.45;106378;1278;25577;-78
2022/07/03 10:22:01;;;;;;;1.00;0.60;;;;;;;26.69;39.66;100841.05;106420;1278;23923;-78
2022/07/03 10:24:31;;;;;;;2.80;0.70;;;;;;;26.83;39.05;100837.58;106555;1278;24286;-78
2022/07/03 10:26:58;;;;;;;2.80;1.20;;;;;;;26.96;38.59;100832.48;106448;1277;25271;-78
2022/07/03 10:38:03;;;;;;;2.00;0.70;;;;;;;27.52;38.69;100818.59;106238;1277;25410;-79
2022/07/03 10:46:33;;;;;;;2.00;0.60;;;;;;;28.07;37.47;100820.65;106965;1273;22562;-78
2022/07/03 10:49:10;;;;;;;2.30;0.60;;;;;;;28.14;37.75;100818.48;107460;1273;25267;-76
2022/07/03 10:51:45;;;;;;;0.50;0.40;;;;;;;28.27;37.06;100822.52;107219;1273;22518;-78
2022/07/03 10:54:17;;;;;;;3.00;0.60;;;;;;;28.39;37.25;100812.80;108229;1272;24252;-77
2022/07/03 10:57:02;;;;;;;2.00;1.00;;;;;;;28.48;36.44;100811.39;106937;1272;25398;-76
2022/07/03 10:59:34;;;;;;;1.10;0.50;;;;;;;28.42;36.37;100808.21;107714;1274;22564;-79
2022/07/03 11:02:31;;;;;;;0.70;0.50;;;;;;;28.42;36.27;100811.64;107387;1274;22578;-78
2022/07/03 11:05:01;;;;;;;0.90;0.50;;;;;;;28.40;35.99;100804.59;107317;1271;24434;-78
2022/07/03 11:07:42;;;;;;;1.50;0.90;;;;;;;28.44;35.96;100798.41;108761;1271;22553;-84
2022/07/03 11:10:15;;;;;;;2.50;0.70;;;;;;;28.60;36.04;100794.82;109369;1271;22599;-80
2022/07/03 11:12:57;;;;;;;1.80;0.70;;;;;;;28.76;36.08;100793.05;109024;1271;22541;-77
2022/07/03 11:15:30;;;;;;;1.60;0.80;;;;;;;28.82;35.64;100786.56;109349;1271;22568;-78
2022/07/03 11:18:11;;;;;;;2.80;0.60;;;;;;;28.98;35.90;100788.79;109482;1271;22897;-79
2022/07/03 11:20:55;;;;;;;1.40;0.50;;;;;;;29.19;35.58;100782.18;108957;1271;22602;-79
2022/07/03 11:23:25;;;;;;;1.30;0.70;;;;;;;29.36;35.76;100780.84;107105;1271;24322;-81
2022/07/03 11:26:11;;;;;;;0.70;0.60;;;;;;;29.48;35.40;100779.72;106432;1271;22586;-79
2022/07/03 11:28:37;;;;;;;1.00;0.60;;;;;;;29.48;35.74;100777.31;106621;1271;24253;-80
2022/07/03 11:33:42;;;;;;;1.00;0.60;;;;;;;29.61;34.99;100773.18;106542;1271;22937;-78
2022/07/03 11:36:17;;;;;;;0.90;0.60;;;;;;;29.78;35.76;100769.73;106436;1271;22560;-81
2022/07/03 11:38:44;;;;;;;;;;;;;;;30.00;35.37;100765.70;106396;1271;26481;-80
2022/07/03 11:41:14;;;;;;;2.00;0.90;;;;;;;30.17;34.85;100761.77;106243;1272;22548;-81
2022/07/03 11:43:47;;;;;;;0.90;0.50;;;;;;;30.29;34.83;100759.80;106496;1271;22606;-80
2022/07/03 11:46:22;;;;;;;2.80;0.80;;;;;;;30.44;34.51;100761.43;106335;1271;22668;-80
2022/07/03 11:48:48;;;;;;;1.70;0.60;;;;;;;30.50;33.80;100760.32;105867;1281;24320;-75
2022/07/03 11:51:15;;;;;;;1.40;0.60;;;;;;;30.59;33.97;100760.69;105804;1278;24336;-78
2022/07/03 11:53:42;;;;;;;1.70;0.50;;;;;;;30.77;33.96;100755.86;105907;1278;24203;-80
2022/07/03 11:56:10;;;;;;;1.50;0.70;;;;;;;30.93;33.69;100749.52;105912;1278;25282;-76
2022/07/03 11:59:06;;;;;;;1.90;0.80;;;;;;;31.05;33.20;100750.61;105505;1279;23995;-77